Akeno Air Base, Japan

5:04 PM JST on February 12, 2016 (GMT +0900)
Nagoya / Chubu | | Change Station
CLOSE
Current Station
Airport
Location: Nagoya / Chubu,
Elevation: 16 ft
Nearby Weather Stations

Elev 16 ft 34.86 °N, 136.81 °E | Updated 34 minutes ago

Mostly Cloudy
Mostly Cloudy
48 °F
Feels Like 48 °F
N
8
Wind Variable Wind from North

Today
High -- | Low -- °F
--% Chance of Precip.
Yesterday
High -- | Low -- °F
Precip. -- in
Pressure 30.36 in
Visibility 5.6 miles
Clouds Few 1000 ft
Scattered Clouds 1400 ft
Mostly Cloudy 2000 ft
Dew Point 37 °F
Humidity 66%
Rainfall 0.00 in
Snow Depth Not available.
6:42 AM 5:32 PM
Waxing Crescent, 18% visible
METAR RJGG 120730Z 35007KT 9000 FEW010 SCT014 BKN020 09/03 Q1028 NOSIG
Pressure 30.36 in
Visibility 5.6 miles
Clouds Few 1000 ft
Scattered Clouds 1400 ft
Mostly Cloudy 2000 ft
Dew Point 37 °F
Humidity 66%
Rainfall 0.00 in
Snow Depth Not available.
6:42 AM 5:32 PM
Waxing Crescent, 18% visible
METAR RJGG 120730Z 35007KT 9000 FEW010 SCT014 BKN020 09/03 Q1028 NOSIG

10-Day Weather Forecast

No radar image for this location.
×

Almanac

Astronomy

Feb. 12, 2016 Rise Set
Actual Time
Civil Twilight
Nautical Twilight
Astronomical Twilight
Moon
Length of Visible Light
Length of Day
Tomorrow will be .
, % of the Moon is Illuminated

Today's Extremes

Country Highs Country Lows

Community

WunderPhotos

Upload Photos

1,892,278 photos uploaded!

WunderBlog® & News

Nearby

Air Quality

  Air Quality AQ Index Pollutant
Not available.

Snow Depth

Station Depth Elevation

Earthquake Activity

City Distance Mag. Time & Date
Minimum magnitude displayed is 2.5.

Coastal Water Temperatures

Place Temperature

Stations

Nearby Weather Stations

Station Location Temp. Windchill Dew Point Humidity Wind Precip. Elev Updated Type